Time;durP1;ratioP1;P1;durP2;ratioP2;P2;SDS_P1;SDS_P2;PMS_P1;PMS_P2;Temp;Humidity;BMP_temperature;BMP_pressure;BME280_temperature;BME280_humidity;BME280_pressure;Samples;Min_cycle;Max_cycle;Signal;HPM_P1;HPM_P2
2021/07/28 00:01:32;;;;;;;7.27;6.50;;;;;;;23.17;56.32;97611.16;8319994;28;20208;-65
2021/07/28 00:05:36;;;;;;;8.00;6.67;;;;;;;23.22;56.05;97611.47;8320903;28;20219;-65
2021/07/28 00:09:39;;;;;;;9.17;6.30;;;;;;;23.22;56.31;97623.88;8320788;28;20224;-65
2021/07/28 00:13:44;;;;;;;10.57;6.30;;;;;;;23.22;55.77;97619.41;8320557;28;20233;-65
2021/07/28 00:17:50;;;;;;;8.60;5.80;;;;;;;23.00;56.15;97612.81;8320546;28;20205;-64
2021/07/28 00:26:13;;;;;;;6.07;5.47;;;;;;;22.83;56.85;97606.59;8320142;28;20208;-65
2021/07/28 00:30:17;;;;;;;5.87;5.27;;;;;;;22.83;56.81;97617.16;8319410;28;20514;-65
2021/07/28 00:34:21;;;;;;;8.87;5.47;;;;;;;22.73;56.95;97620.84;8319887;28;20229;-65
2021/07/28 00:38:25;;;;;;;6.67;5.67;;;;;;;22.69;57.24;97611.59;8319852;28;20201;-65
2021/07/28 00:42:28;;;;;;;7.13;5.70;;;;;;;22.71;57.21;97614.91;8319376;28;20235;-65
2021/07/28 00:46:31;;;;;;;5.93;4.97;;;;;;;22.76;57.27;97607.38;8319626;28;20208;-65
2021/07/28 00:50:36;;;;;;;7.67;5.57;;;;;;;22.74;57.35;97622.53;8319519;28;20388;-65
2021/07/28 00:54:40;;;;;;;6.67;5.10;;;;;;;22.84;57.00;97616.16;8319189;28;20243;-65
2021/07/28 00:58:42;;;;;;;7.60;5.50;;;;;;;22.81;57.24;97626.22;8319149;28;20210;-64
2021/07/28 01:02:45;;;;;;;6.93;5.40;;;;;;;22.83;57.21;97633.00;8319306;28;20205;-65
2021/07/28 01:06:49;;;;;;;5.97;5.37;;;;;;;22.81;57.21;97629.69;8318994;28;20319;-65
2021/07/28 01:10:52;;;;;;;6.27;5.23;;;;;;;22.84;57.25;97641.75;8318778;28;20201;-65
2021/07/28 01:14:55;;;;;;;7.50;5.53;;;;;;;22.77;57.64;97645.97;8318744;28;20228;-65
2021/07/28 01:18:59;;;;;;;8.53;5.40;;;;;;;22.80;57.34;97649.13;8318656;28;20204;-65
2021/07/28 01:23:05;;;;;;;7.30;5.63;;;;;;;22.75;57.48;97655.84;8318449;28;20395;-65
2021/07/28 01:27:09;;;;;;;8.70;5.80;;;;;;;22.79;57.69;97665.97;8318365;28;20201;-65
2021/07/28 01:31:14;;;;;;;8.33;5.50;;;;;;;22.76;57.87;97670.72;8318376;28;20216;-65
2021/07/28 01:35:17;;;;;;;6.33;5.63;;;;;;;22.74;57.75;97672.69;8318260;28;20550;-65
2021/07/28 01:39:20;;;;;;;6.33;5.63;;;;;;;22.68;58.23;97673.28;8318044;28;20208;-65
2021/07/28 01:43:26;;;;;;;7.40;5.70;;;;;;;22.67;57.91;97680.34;8317430;28;20241;-65
2021/07/28 01:47:29;;;;;;;6.63;5.47;;;;;;;22.66;58.22;97678.72;8317790;28;20510;-65
2021/07/28 01:51:33;;;;;;;6.63;5.93;;;;;;;22.58;58.27;97687.38;8317722;28;20295;-65
2021/07/28 01:55:36;;;;;;;8.60;5.43;;;;;;;22.61;58.40;97684.44;8317621;28;20315;-65
2021/07/28 01:59:40;;;;;;;6.37;5.70;;;;;;;22.61;58.66;97695.00;8317465;28;20208;-65
2021/07/28 02:03:43;;;;;;;7.10;5.67;;;;;;;22.63;58.79;97677.19;8317370;28;20213;-65
2021/07/28 02:07:46;;;;;;;7.07;5.70;;;;;;;22.57;58.71;97677.81;8317417;28;20203;-65
2021/07/28 02:11:49;;;;;;;6.17;5.57;;;;;;;22.50;59.36;97671.47;8317408;28;20204;-65
2021/07/28 02:15:53;;;;;;;6.53;5.70;;;;;;;22.44;58.99;97672.88;8317130;28;20235;-65
2021/07/28 02:20:00;;;;;;;6.53;5.83;;;;;;;22.43;59.26;97676.53;8317304;28;20210;-65
2021/07/28 02:24:02;;;;;;;7.17;6.20;;;;;;;22.43;59.53;97675.69;8317159;28;20208;-65
2021/07/28 02:28:05;;;;;;;7.17;6.47;;;;;;;22.50;59.21;97676.75;8317076;28;20205;-65
2021/07/28 02:32:09;;;;;;;12.73;7.13;;;;;;;22.48;59.29;97673.44;8316946;28;20209;-65
2021/07/28 02:36:12;;;;;;;9.47;8.10;;;;;;;22.44;59.75;97679.97;8316887;28;20238;-65
2021/07/28 02:40:16;;;;;;;9.43;8.37;;;;;;;22.45;59.82;97679.03;8316805;28;20212;-65
2021/07/28 02:44:19;;;;;;;10.37;8.70;;;;;;;22.50;59.84;97684.66;8316728;28;20251;-65
2021/07/28 02:48:23;;;;;;;10.73;8.83;;;;;;;22.50;59.98;97687.28;8316589;28;20394;-65
2021/07/28 02:52:26;;;;;;;15.47;9.23;;;;;;;22.42;60.36;97688.03;8316620;28;20230;-64
2021/07/28 02:56:29;;;;;;;10.50;9.40;;;;;;;22.42;60.54;97705.69;8321580;28;20235;-64
2021/07/28 03:00:32;;;;;;;10.40;8.77;;;;;;;22.40;60.94;97697.91;8322797;28;20204;-65
2021/07/28 03:04:36;;;;;;;10.60;9.50;;;;;;;22.31;61.45;97688.25;8322812;28;20271;-64
2021/07/28 03:08:39;;;;;;;10.33;8.50;;;;;;;22.36;61.59;97683.38;8322654;28;20387;-64
2021/07/28 03:12:41;;;;;;;13.67;9.27;;;;;;;22.34;61.89;97679.22;8322523;28;20203;-65
2021/07/28 03:16:44;;;;;;;12.33;9.10;;;;;;;22.34;61.29;97673.97;8322306;28;20339;-65
2021/07/28 03:20:48;;;;;;;9.63;8.63;;;;;;;22.32;61.29;97687.28;8322191;28;20204;-64
2021/07/28 03:24:51;;;;;;;11.90;9.57;;;;;;;22.27;62.02;97688.72;8322051;28;20211;-64
2021/07/28 03:28:54;;;;;;;12.03;9.40;;;;;;;22.24;61.71;97687.19;8322096;28;20394;-64
2021/07/28 03:32:57;;;;;;;11.63;8.73;;;;;;;22.29;62.14;97694.66;8322165;28;20216;-64
2021/07/28 03:37:01;;;;;;;10.13;9.13;;;;;;;22.21;62.76;97695.38;8321865;28;20522;-65
2021/07/28 03:41:04;;;;;;;10.00;9.00;;;;;;;22.24;62.51;97703.00;8321433;28;20239;-66
2021/07/28 03:45:07;;;;;;;10.40;9.30;;;;;;;22.21;62.34;97698.03;8321886;28;20212;-66
2021/07/28 03:49:10;;;;;;;11.37;9.23;;;;;;;22.24;62.72;97695.09;8321355;28;20205;-65
2021/07/28 03:53:14;;;;;;;10.93;9.77;;;;;;;22.23;62.61;97710.06;8321055;28;20230;-65
2021/07/28 03:57:17;;;;;;;10.30;9.07;;;;;;;21.96;63.18;97713.53;8321240;28;20484;-64
2021/07/28 04:01:20;;;;;;;13.63;9.57;;;;;;;22.16;62.49;97716.06;8320981;28;20208;-65
2021/07/28 04:05:24;;;;;;;13.17;9.43;;;;;;;22.15;62.88;97714.44;8320736;28;20212;-65
2021/07/28 04:09:28;;;;;;;10.60;9.60;;;;;;;22.08;62.76;97698.34;8320401;28;20199;-65
2021/07/28 04:13:31;;;;;;;10.90;9.80;;;;;;;22.16;62.81;97689.72;8320599;28;20240;-64
2021/07/28 04:17:34;;;;;;;11.60;9.30;;;;;;;22.13;62.61;97698.75;8320600;28;20491;-65
2021/07/28 04:21:37;;;;;;;10.40;9.40;;;;;;;22.06;62.39;97703.78;8320818;28;20201;-65
2021/07/28 04:25:41;;;;;;;11.13;9.30;;;;;;;22.15;62.24;97715.25;8320355;28;20216;-65
2021/07/28 04:29:44;;;;;;;13.43;10.17;;;;;;;21.93;63.16;97720.91;8320114;28;20385;-64
2021/07/28 04:33:47;;;;;;;12.60;8.97;;;;;;;22.04;62.35;97715.44;8319672;28;20558;-65
2021/07/28 04:37:50;;;;;;;15.47;10.27;;;;;;;21.94;61.89;97712.88;8320194;28;20221;-65
2021/07/28 04:41:54;;;;;;;10.60;9.47;;;;;;;21.99;62.74;97712.41;8319710;28;20538;-64
2021/07/28 04:45:58;;;;;;;9.97;9.00;;;;;;;21.90;62.23;97703.59;8319804;28;20207;-65
2021/07/28 04:50:01;;;;;;;10.97;9.50;;;;;;;21.96;61.92;97699.53;8319361;28;20242;-65
2021/07/28 04:54:03;;;;;;;10.23;9.23;;;;;;;21.98;61.84;97700.22;8319444;28;20583;-65
2021/07/28 04:58:08;;;;;;;9.97;8.70;;;;;;;22.12;61.46;97714.72;8319351;28;20383;-64
2021/07/28 05:02:11;;;;;;;9.63;8.43;;;;;;;22.19;61.44;97692.88;8318303;28;20196;-65
2021/07/28 05:06:14;;;;;;;11.77;9.33;;;;;;;21.94;62.13;97706.78;8317933;28;20205;-64
2021/07/28 05:10:17;;;;;;;10.80;9.07;;;;;;;22.06;61.84;97703.78;8316782;28;20228;-66
2021/07/28 05:14:21;;;;;;;10.13;9.10;;;;;;;22.12;61.52;97702.34;8317754;28;20221;-65
2021/07/28 05:18:24;;;;;;;9.90;8.90;;;;;;;22.27;61.26;97699.25;8317280;28;20195;-64
2021/07/28 05:22:27;;;;;;;10.37;9.27;;;;;;;22.38;60.50;97699.06;8317648;28;20199;-65
2021/07/28 05:26:30;;;;;;;9.63;8.73;;;;;;;22.41;60.41;97701.41;8317843;28;20208;-65
2021/07/28 05:30:34;;;;;;;8.90;8.00;;;;;;;22.31;60.26;97701.44;8317250;28;20195;-65
2021/07/28 05:34:37;;;;;;;8.70;7.83;;;;;;;22.39;59.78;97709.47;8316866;28;20535;-65
2021/07/28 05:38:40;;;;;;;12.03;7.77;;;;;;;22.50;59.09;97699.66;8317765;28;20197;-64
2021/07/28 05:42:43;;;;;;;9.13;8.17;;;;;;;22.62;59.22;97695.84;8318116;28;20232;-65
2021/07/28 05:46:47;;;;;;;8.13;7.00;;;;;;;22.63;58.06;97689.56;8317933;28;20201;-65
2021/07/28 05:50:50;;;;;;;7.73;6.60;;;;;;;22.78;57.79;97695.97;8317755;28;20484;-65
2021/07/28 05:54:53;;;;;;;7.63;6.80;;;;;;;22.88;57.09;97684.50;8317588;28;20554;-65
2021/07/28 05:58:55;;;;;;;11.83;6.50;;;;;;;22.83;57.25;97683.16;8317739;28;20201;-65
2021/07/28 06:03:00;;;;;;;7.70;6.20;;;;;;;22.81;56.27;97677.19;8317678;28;20500;-64
2021/07/28 06:07:03;;;;;;;7.40;6.67;;;;;;;22.94;56.40;97697.09;8317343;28;20265;-65
2021/07/28 06:11:06;;;;;;;6.07;5.57;;;;;;;23.01;55.74;97708.69;8317303;28;20231;-65
2021/07/28 06:15:10;;;;;;;6.77;5.80;;;;;;;22.97;56.44;97700.25;8317350;28;20531;-64
2021/07/28 06:19:14;;;;;;;6.70;4.90;;;;;;;23.05;58.54;97688.13;8317013;28;20209;-69
2021/07/28 06:23:17;;;;;;;7.43;6.00;;;;;;;23.14;57.81;97695.13;8317070;28;20223;-69
2021/07/28 06:27:19;;;;;;;7.50;5.60;;;;;;;23.45;56.83;97694.69;8317134;28;20212;-69
2021/07/28 06:31:22;;;;;;;7.43;6.23;;;;;;;23.25;56.30;97701.97;8322318;28;20208;-69
2021/07/28 06:35:26;;;;;;;6.23;5.60;;;;;;;23.14;56.26;97714.44;8323564;28;20546;-69
2021/07/28 06:39:29;;;;;;;6.70;5.90;;;;;;;23.47;55.66;97709.38;8323538;28;20204;-69
2021/07/28 06:43:32;;;;;;;5.93;5.30;;;;;;;23.39;55.30;97717.25;8323460;28;20342;-69
2021/07/28 06:47:35;;;;;;;6.43;5.50;;;;;;;23.41;55.62;97716.13;8323102;28;20210;-69
2021/07/28 06:51:39;;;;;;;8.57;6.30;;;;;;;23.38;55.75;97710.31;8323080;28;20221;-69
2021/07/28 06:55:42;;;;;;;12.03;7.30;;;;;;;23.51;55.22;97718.66;8322937;28;20395;-69
2021/07/28 06:59:45;;;;;;;7.37;6.67;;;;;;;23.41;54.72;97720.56;8322609;28;20208;-70
2021/07/28 07:03:47;;;;;;;6.53;5.83;;;;;;;23.74;53.42;97723.41;8322531;28;20208;-69
2021/07/28 07:08:01;;;;;;;6.87;6.00;;;;;;;23.86;54.06;97724.03;8322767;28;20216;-70
2021/07/28 07:12:04;;;;;;;6.47;5.77;;;;;;;23.71;53.64;97729.03;8322470;28;20393;-69
2021/07/28 07:16:07;;;;;;;6.47;5.77;;;;;;;23.36;54.76;97725.50;8322040;28;20232;-69
2021/07/28 07:20:11;;;;;;;5.90;5.30;;;;;;;23.48;54.30;97729.56;8321800;28;20211;-69
2021/07/28 07:24:15;;;;;;;7.43;5.10;;;;;;;23.70;53.69;97743.22;8321262;28;20209;-69
2021/07/28 07:28:18;;;;;;;7.63;5.67;;;;;;;23.61;53.62;97742.34;8321444;28;20391;-69
2021/07/28 07:32:21;;;;;;;7.00;5.63;;;;;;;23.48;53.81;97732.19;8321520;28;20203;-69
2021/07/28 07:36:25;;;;;;;6.87;5.43;;;;;;;23.66;53.55;97726.84;8321171;28;20408;-69
2021/07/28 07:40:29;;;;;;;7.30;5.27;;;;;;;23.75;53.73;97743.59;8320406;28;20201;-70
2021/07/28 07:44:32;;;;;;;6.00;5.33;;;;;;;23.75;54.15;97736.47;8321304;28;20248;-67
2021/07/28 07:48:35;;;;;;;6.63;6.03;;;;;;;23.73;53.68;97734.97;8320578;28;20202;-70
2021/07/28 07:52:38;;;;;;;7.20;5.87;;;;;;;23.88;53.90;97732.63;8320519;28;20221;-69
2021/07/28 07:56:42;;;;;;;8.50;5.73;;;;;;;24.08;53.03;97727.91;8320408;28;20228;-69
2021/07/28 08:00:45;;;;;;;13.20;6.57;;;;;;;24.38;52.13;97723.88;8319755;28;20506;-69
2021/07/28 08:04:48;;;;;;;8.63;5.73;;;;;;;24.47;52.04;97728.19;8320790;28;20482;-70
2021/07/28 08:08:51;;;;;;;10.43;6.07;;;;;;;24.48;52.13;97731.66;8320100;28;20208;-69
2021/07/28 08:12:55;;;;;;;9.13;5.90;;;;;;;24.05;53.10;97725.59;8320402;28;20202;-69
2021/07/28 08:16:57;;;;;;;8.53;5.43;;;;;;;24.05;52.82;97728.25;8320315;28;20249;-69
2021/07/28 08:21:01;;;;;;;8.53;6.27;;;;;;;23.90;52.90;97730.66;8319785;28;20488;-71
2021/07/28 08:25:05;;;;;;;6.47;5.77;;;;;;;24.25;51.97;97737.53;8319761;28;20205;-70
2021/07/28 08:29:10;;;;;;;9.07;5.77;;;;;;;24.32;51.60;97729.81;8319335;28;20210;-71
2021/07/28 08:33:17;;;;;;;9.17;6.33;;;;;;;24.18;51.45;97733.91;8319473;28;20197;-70
2021/07/28 08:37:20;;;;;;;7.00;5.17;;;;;;;24.28;51.59;97729.31;8319171;28;20226;-69
2021/07/28 08:41:24;;;;;;;10.37;6.10;;;;;;;24.28;51.28;97723.19;8319206;28;20263;-69
2021/07/28 08:45:28;;;;;;;9.37;5.80;;;;;;;24.13;51.50;97734.38;8318874;28;20214;-69
2021/07/28 08:49:33;;;;;;;11.17;5.57;;;;;;;24.32;51.30;97740.41;8318631;28;20217;-69
2021/07/28 08:53:36;;;;;;;6.70;5.50;;;;;;;24.30;50.32;97759.06;8317967;28;20225;-69
2021/07/28 08:57:38;;;;;;;7.03;5.13;;;;;;;24.28;50.41;97762.88;8318993;28;20225;-69
2021/07/28 09:01:43;;;;;;;6.43;5.07;;;;;;;24.45;50.51;97769.06;8318496;28;20207;-67
2021/07/28 09:05:47;;;;;;;7.03;4.67;;;;;;;24.44;50.19;97770.03;8318698;28;20212;-69
2021/07/28 09:09:51;;;;;;;8.90;5.40;;;;;;;24.09;50.86;97772.72;8319235;28;20498;-70
2021/07/28 09:13:56;;;;;;;7.93;5.00;;;;;;;23.87;52.08;97775.91;8318701;28;20208;-69
2021/07/28 09:18:06;;;;;;;7.87;5.20;;;;;;;23.81;51.97;97783.47;8319060;28;20239;-71
2021/07/28 09:22:10;;;;;;;7.00;5.43;;;;;;;23.84;52.45;97779.69;8319010;28;20381;-68
2021/07/28 09:26:42;;;;;;;7.03;5.27;;;;;;;23.75;51.76;97785.88;8319106;28;20386;-69
2021/07/28 09:30:44;;;;;;;7.07;5.30;;;;;;;23.78;51.18;97790.88;8305994;28;20213;-69
2021/07/28 09:34:54;;;;;;;5.17;4.67;;;;;;;23.50;51.71;97787.53;8317979;28;20209;-69
2021/07/28 09:38:57;;;;;;;8.27;5.17;;;;;;;23.62;51.49;97788.94;8285984;28;20256;-72
2021/07/28 09:43:04;;;;;;;9.17;5.10;;;;;;;23.67;50.39;97788.50;8285457;28;20241;-70
2021/07/28 09:47:11;;;;;;;6.63;4.60;;;;;;;23.41;50.67;97790.09;8291562;28;20239;-69
2021/07/28 09:51:27;;;;;;;8.57;4.80;;;;;;;23.42;50.90;97786.50;8317957;28;20543;-70
2021/07/28 09:55:29;;;;;;;9.30;4.87;;;;;;;23.39;51.10;97778.84;8317865;28;20216;-69
2021/07/28 09:59:33;;;;;;;7.43;4.60;;;;;;;23.40;50.54;97774.44;8316731;28;20371;-69
2021/07/28 10:03:35;;;;;;;5.37;4.13;;;;;;;22.93;47.88;97770.19;8316453;28;20193;-70
2021/07/28 10:07:42;;;;;;;6.00;4.30;;;;;;;22.94;49.52;97771.88;8313862;28;20217;-70
2021/07/28 10:11:46;;;;;;;8.20;4.00;;;;;;;23.02;49.17;97765.84;8316360;28;20197;-68
2021/07/28 10:15:49;;;;;;;8.27;4.70;;;;;;;23.27;50.32;97760.78;8315878;28;20234;-68
2021/07/28 10:19:53;;;;;;;6.63;4.50;;;;;;;23.29;50.76;97761.47;8316033;28;20199;-68
2021/07/28 10:24:09;;;;;;;6.73;4.53;;;;;;;23.06;50.70;97767.22;8314010;28;20196;-68
2021/07/28 10:28:12;;;;;;;5.87;4.70;;;;;;;22.91;51.15;97766.88;8315632;28;20208;-67
2021/07/28 10:32:31;;;;;;;6.13;4.30;;;;;;;23.18;51.97;97781.81;8315712;28;20197;-68
2021/07/28 10:36:47;;;;;;;7.67;4.70;;;;;;;23.19;52.53;97777.41;8314759;28;20225;-68
2021/07/28 10:40:58;;;;;;;7.60;4.80;;;;;;;23.21;52.89;97776.25;8314224;28;20200;-69
2021/07/28 10:45:06;;;;;;;6.20;4.80;;;;;;;22.88;52.02;97785.66;8313540;28;20197;-69
2021/07/28 10:49:09;;;;;;;9.10;4.70;;;;;;;23.08;52.83;97794.28;8315887;28;20212;-70
2021/07/28 10:53:12;;;;;;;9.07;4.83;;;;;;;23.05;52.90;97810.44;8316492;28;20233;-68
2021/07/28 11:01:57;;;;;;;8.33;4.40;;;;;;;23.19;52.48;97796.72;8445644;27;20563;-74
2021/07/28 11:06:33;;;;;;;11.60;5.13;;;;;;;23.10;52.62;97791.50;8445396;28;20208;-69
2021/07/28 11:10:37;;;;;;;15.07;5.20;;;;;;;23.11;51.88;97783.41;8445040;28;20209;-68
2021/07/28 11:14:46;;;;;;;10.20;4.80;;;;;;;23.16;52.47;97757.38;8446284;28;20198;-68
2021/07/28 11:18:52;;;;;;;9.63;5.07;;;;;;;22.79;51.95;97778.63;8444575;28;20544;-68
2021/07/28 11:23:34;;;;;;;9.40;4.83;;;;;;;22.93;51.63;97766.72;8444622;28;20206;-69
2021/07/28 11:27:38;;;;;;;7.57;5.13;;;;;;;22.79;51.94;97774.19;8444382;28;20465;-71
2021/07/28 11:31:43;;;;;;;9.53;4.43;;;;;;;23.06;51.11;97761.94;8444224;28;20380;-69
2021/07/28 11:35:48;;;;;;;14.70;5.77;;;;;;;23.03;51.30;97765.69;8444222;28;20238;-69
2021/07/28 11:39:51;;;;;;;7.47;5.20;;;;;;;23.02;51.96;97768.47;8444321;28;20225;-67
2021/07/28 11:43:57;;;;;;;8.13;5.33;;;;;;;23.12;51.76;97771.06;8444200;28;20198;-70
2021/07/28 11:48:00;;;;;;;5.90;5.30;;;;;;;22.91;51.75;97760.78;8443885;28;20202;-72
2021/07/28 11:52:05;;;;;;;9.20;5.90;;;;;;;22.86;52.27;97771.78;8443788;28;20248;-69
2021/07/28 11:56:10;;;;;;;7.73;5.93;;;;;;;22.94;52.17;97771.88;8442602;28;20194;-70
2021/07/28 12:00:44;;;;;;;6.53;5.33;;;;;;;23.25;51.40;97775.94;8441598;28;20233;-70
2021/07/28 12:04:48;;;;;;;8.27;5.27;;;;;;;23.62;50.59;97773.06;8391350;28;20194;-69
2021/07/28 12:09:05;;;;;;;6.73;5.47;;;;;;;23.67;50.09;97775.28;8436467;28;20201;-69
2021/07/28 12:13:19;;;;;;;8.30;5.37;;;;;;;23.62;49.72;97765.97;8402815;28;20196;-68
2021/07/28 12:17:23;;;;;;;6.57;5.17;;;;;;;23.21;50.05;97752.47;8386603;28;20218;-69
2021/07/28 12:21:26;;;;;;;5.97;5.20;;;;;;;23.40;50.25;97754.09;8386318;28;20245;-71
2021/07/28 12:25:30;;;;;;;6.40;5.10;;;;;;;23.24;50.62;97751.34;8386249;28;20207;-69
2021/07/28 12:29:33;;;;;;;7.50;5.07;;;;;;;22.99;50.08;97772.22;8386089;28;20198;-68
2021/07/28 12:33:37;;;;;;;6.47;4.93;;;;;;;23.42;50.24;97778.56;8385914;28;20263;-70
2021/07/28 12:37:40;;;;;;;6.87;5.30;;;;;;;23.76;48.95;97776.94;8386747;28;20210;-69
2021/07/28 12:41:44;;;;;;;6.27;5.03;;;;;;;23.64;49.85;97757.88;8386783;28;20423;-71
2021/07/28 12:45:53;;;;;;;6.53;5.57;;;;;;;23.68;49.64;97777.72;8386763;28;20200;-69
2021/07/28 12:49:55;;;;;;;6.40;5.07;;;;;;;23.64;49.11;97768.47;8416363;28;20207;-68
2021/07/28 12:53:58;;;;;;;6.83;5.23;;;;;;;23.57;49.86;97764.78;8420132;28;20529;-69
2021/07/28 12:58:02;;;;;;;5.80;5.00;;;;;;;23.41;50.12;97773.44;8419280;28;20206;-67
2021/07/28 13:02:07;;;;;;;5.67;4.50;;;;;;;23.89;49.27;97772.09;8419329;28;20234;-68
2021/07/28 13:06:10;;;;;;;5.93;5.23;;;;;;;23.55;50.14;97779.97;8419315;28;20199;-68
2021/07/28 13:10:13;;;;;;;7.13;4.93;;;;;;;23.87;49.39;97782.00;8418967;28;20507;-69
2021/07/28 13:14:17;;;;;;;8.63;5.83;;;;;;;23.70;49.96;97769.66;8418806;28;20522;-68
2021/07/28 13:18:20;;;;;;;6.50;5.53;;;;;;;23.58;50.02;97767.25;8414671;28;20221;-69
2021/07/28 13:22:23;;;;;;;5.93;4.83;;;;;;;23.72;50.46;97762.38;8400096;28;20229;-69
2021/07/28 13:26:26;;;;;;;6.13;5.20;;;;;;;23.88;50.10;97769.63;8401066;28;20199;-69
2021/07/28 13:30:30;;;;;;;6.00;5.40;;;;;;;24.69;47.67;97758.53;8403436;28;20192;-69
2021/07/28 13:34:33;;;;;;;5.47;4.80;;;;;;;25.38;46.85;97762.75;8400340;28;20199;-69
2021/07/28 13:38:36;;;;;;;6.23;5.27;;;;;;;25.16;46.12;97763.22;8400496;28;20199;-69
2021/07/28 13:42:40;;;;;;;6.17;5.10;;;;;;;25.41;45.87;97757.94;8402511;28;20483;-68
2021/07/28 13:46:44;;;;;;;6.47;5.33;;;;;;;25.48;45.46;97758.94;8400610;28;20206;-69
2021/07/28 13:50:47;;;;;;;5.73;5.13;;;;;;;25.59;45.30;97749.81;8400025;28;20202;-68
2021/07/28 13:54:50;;;;;;;7.53;4.63;;;;;;;25.88;45.27;97751.91;8397886;28;20193;-68
2021/07/28 13:58:53;;;;;;;4.80;4.30;;;;;;;25.26;45.02;97744.53;8399557;28;20227;-68
2021/07/28 14:02:57;;;;;;;5.43;4.43;;;;;;;25.60;44.50;97746.16;8397063;28;20199;-68
2021/07/28 14:07:00;;;;;;;5.23;4.73;;;;;;;24.59;47.22;97734.84;8400035;28;20297;-68
2021/07/28 14:11:07;;;;;;;5.70;5.20;;;;;;;24.91;45.81;97748.31;8400207;28;20223;-69
2021/07/28 14:15:11;;;;;;;6.13;4.30;;;;;;;25.19;45.90;97730.28;8395930;28;20199;-68
2021/07/28 14:19:18;;;;;;;7.27;4.73;;;;;;;25.82;44.60;97734.03;8397985;28;20223;-67
2021/07/28 14:23:21;;;;;;;6.93;5.03;;;;;;;26.27;43.81;97721.94;8404251;28;20206;-68
2021/07/28 14:27:24;;;;;;;6.23;4.60;;;;;;;26.14;43.14;97725.16;8416536;28;20221;-67
2021/07/28 14:31:28;;;;;;;7.03;4.80;;;;;;;25.93;43.90;97725.72;8416485;28;20210;-68
2021/07/28 14:35:33;;;;;;;6.47;4.70;;;;;;;25.64;44.85;97720.13;8416022;28;20233;-67
2021/07/28 14:39:37;;;;;;;5.00;4.50;;;;;;;25.54;43.48;97726.44;8416331;28;20303;-67
2021/07/28 14:43:40;;;;;;;6.20;4.40;;;;;;;26.06;43.19;97719.84;8407292;28;20486;-67
2021/07/28 14:47:44;;;;;;;6.47;4.00;;;;;;;25.63;43.93;97708.72;8406079;28;20200;-68
2021/07/28 14:51:54;;;;;;;5.17;4.23;;;;;;;25.96;43.64;97708.63;8397991;28;20212;-67
2021/07/28 14:55:57;;;;;;;6.97;5.10;;;;;;;25.17;44.83;97711.91;8398520;28;20271;-67
2021/07/28 15:00:01;;;;;;;5.73;4.90;;;;;;;24.67;46.26;97704.09;8399622;28;20532;-67
2021/07/28 15:04:05;;;;;;;5.70;4.70;;;;;;;25.14;45.53;97709.56;8396892;28;20205;-67
2021/07/28 15:08:10;;;;;;;6.23;4.70;;;;;;;25.14;45.49;97700.81;8385177;28;20385;-67
2021/07/28 15:12:13;;;;;;;6.30;4.67;;;;;;;25.63;44.69;97703.41;8382359;28;20399;-66
2021/07/28 15:16:16;;;;;;;6.10;4.90;;;;;;;25.38;44.25;97701.78;8415453;28;20413;-65
2021/07/28 15:20:20;;;;;;;5.33;3.80;;;;;;;25.63;43.88;97697.28;8415687;28;20228;-67
2021/07/28 15:24:27;;;;;;;5.70;4.10;;;;;;;25.69;43.62;97697.41;8401876;28;20213;-66
2021/07/28 15:28:31;;;;;;;5.57;4.33;;;;;;;25.75;43.67;97696.72;8394743;28;20510;-67
2021/07/28 15:32:34;;;;;;;4.20;3.80;;;;;;;25.75;43.43;97685.31;8392952;28;20196;-66
2021/07/28 15:36:37;;;;;;;5.07;4.37;;;;;;;25.77;42.84;97685.13;8400212;28;20215;-67
2021/07/28 15:40:43;;;;;;;4.63;3.87;;;;;;;25.24;42.41;97684.75;8406885;28;20221;-67
2021/07/28 15:44:48;;;;;;;5.83;4.60;;;;;;;25.68;41.90;97681.69;8393770;28;20191;-67
2021/07/28 15:48:51;;;;;;;7.80;4.87;;;;;;;25.75;42.10;97670.22;8392984;28;20195;-67
2021/07/28 15:52:54;;;;;;;6.17;4.30;;;;;;;25.72;41.59;97675.88;8402650;28;20215;-66
2021/07/28 15:56:58;;;;;;;4.43;3.77;;;;;;;25.54;41.94;97677.91;8415886;28;20195;-66
2021/07/28 16:01:01;;;;;;;5.10;3.80;;;;;;;25.11;43.44;97685.22;8420501;28;20234;-67
2021/07/28 16:05:05;;;;;;;6.23;4.03;;;;;;;25.12;43.32;97679.78;8420517;28;20196;-67
2021/07/28 16:09:08;;;;;;;4.60;3.73;;;;;;;24.72;42.87;97672.69;8420632;28;20199;-67
2021/07/28 16:13:13;;;;;;;5.20;3.47;;;;;;;25.08;42.80;97672.34;8420615;28;20494;-66
2021/07/28 16:17:33;;;;;;;3.87;3.40;;;;;;;25.15;42.91;97668.00;8420761;28;20200;-66
2021/07/28 16:21:36;;;;;;;4.90;3.73;;;;;;;25.02;42.90;97654.44;8420390;28;20242;-66
2021/07/28 16:25:41;;;;;;;6.40;5.80;;;;;;;24.82;43.04;97657.44;8420244;28;20201;-66
2021/07/28 16:29:46;;;;;;;7.00;3.83;;;;;;;24.63;43.21;97641.88;8420193;28;20205;-66
2021/07/28 16:33:49;;;;;;;4.77;4.00;;;;;;;24.58;43.19;97658.28;8420274;28;20211;-66
2021/07/28 16:37:51;;;;;;;5.90;4.03;;;;;;;24.67;43.33;97654.63;8420031;28;20204;-66
2021/07/28 16:41:54;;;;;;;6.03;4.17;;;;;;;24.57;43.12;97651.31;8419869;28;20415;-67
2021/07/28 16:45:59;;;;;;;4.70;3.93;;;;;;;24.56;43.26;97647.84;8419714;28;20200;-65
2021/07/28 16:50:01;;;;;;;11.80;8.57;;;;;;;24.55;43.13;97653.31;8419435;28;20211;-67
2021/07/28 16:54:05;;;;;;;17.47;15.67;;;;;;;24.40;44.13;97661.03;8419546;28;20521;-66
2021/07/28 16:58:08;;;;;;;15.07;9.53;;;;;;;24.51;44.96;97660.75;8418904;28;20207;-66
2021/07/28 17:02:13;;;;;;;9.17;8.07;;;;;;;24.15;46.03;97670.72;8419389;28;20222;-66
2021/07/28 17:06:18;;;;;;;6.20;5.60;;;;;;;24.23;46.31;97669.91;8418768;28;20198;-66
2021/07/28 17:10:22;;;;;;;5.87;4.60;;;;;;;24.16;46.67;97672.38;8418976;28;20203;-65
2021/07/28 17:14:25;;;;;;;4.37;3.97;;;;;;;24.34;46.17;97669.63;8418884;28;20199;-66
2021/07/28 17:18:29;;;;;;;5.30;4.80;;;;;;;24.34;46.44;97675.72;8418508;28;20211;-65
2021/07/28 17:22:37;;;;;;;7.63;5.33;;;;;;;24.31;46.58;97673.44;8418534;28;20531;-65
2021/07/28 17:26:51;;;;;;;4.97;4.40;;;;;;;24.25;47.23;97682.00;8418258;28;20207;-65
2021/07/28 17:30:59;;;;;;;4.80;4.20;;;;;;;24.25;47.37;97682.00;8418062;28;20221;-65
2021/07/28 17:35:11;;;;;;;6.47;5.40;;;;;;;24.35;47.38;97684.50;8418274;28;20203;-65
2021/07/28 17:39:21;;;;;;;5.97;4.17;;;;;;;24.38;48.18;97687.63;8417328;28;20199;-65
2021/07/28 17:43:30;;;;;;;6.07;4.40;;;;;;;24.10;49.83;97720.63;8417678;28;20233;-65
2021/07/28 17:47:37;;;;;;;5.97;4.20;;;;;;;23.62;52.84;97718.38;8417641;28;20200;-64
2021/07/28 17:51:43;;;;;;;4.97;3.90;;;;;;;23.45;54.10;97718.47;8417428;28;20268;-64
2021/07/28 17:55:48;;;;;;;4.20;3.57;;;;;;;23.49;54.38;97727.72;8417577;28;20234;-65
2021/07/28 17:59:57;;;;;;;6.60;3.70;;;;;;;23.34;55.46;97735.38;8417390;28;20546;-64
2021/07/28 18:04:17;;;;;;;4.73;3.90;;;;;;;23.18;56.34;97741.38;8417206;28;20287;-64
2021/07/28 18:08:25;;;;;;;7.53;4.33;;;;;;;23.01;58.10;97735.09;8416585;28;20209;-65
2021/07/28 18:12:35;;;;;;;5.60;4.30;;;;;;;22.84;57.48;97705.91;8416957;28;20243;-64
2021/07/28 18:16:43;;;;;;;5.90;4.70;;;;;;;23.11;57.49;97704.19;8416891;28;20209;-64
2021/07/28 18:20:51;;;;;;;7.47;5.20;;;;;;;22.99;57.36;97713.31;8416639;28;20296;-64
2021/07/28 18:24:59;;;;;;;5.57;4.30;;;;;;;23.10;56.78;97714.91;8416775;28;20200;-64
2021/07/28 18:29:03;;;;;;;7.80;4.67;;;;;;;23.09;57.00;97707.97;8416739;28;20384;-64
2021/07/28 18:33:09;;;;;;;7.53;4.63;;;;;;;23.16;57.31;97723.03;8416378;28;20213;-64
2021/07/28 18:37:16;;;;;;;5.13;4.63;;;;;;;23.12;57.40;97724.34;8416439;28;20540;-64
2021/07/28 18:41:22;;;;;;;4.90;4.40;;;;;;;23.02;57.18;97726.22;8416222;28;20230;-63
2021/07/28 18:45:25;;;;;;;4.97;4.17;;;;;;;22.94;57.08;97726.13;8416312;28;20374;-64
2021/07/28 18:49:30;;;;;;;7.30;4.87;;;;;;;22.90;57.15;97733.53;8415979;28;20206;-64
2021/07/28 18:53:34;;;;;;;5.80;4.13;;;;;;;22.84;56.77;97740.22;8416090;28;20286;-64
2021/07/28 18:57:38;;;;;;;4.03;3.60;;;;;;;22.84;55.66;97739.41;8415965;28;20494;-63
2021/07/28 19:01:43;;;;;;;3.77;3.40;;;;;;;22.82;54.93;97747.47;8415739;28;20239;-65
2021/07/28 19:05:47;;;;;;;4.87;3.70;;;;;;;22.76;54.87;97747.25;8416000;28;20276;-64
2021/07/28 19:09:50;;;;;;;3.50;3.10;;;;;;;22.68;53.81;97750.66;8415888;28;20209;-64
2021/07/28 19:14:06;;;;;;;3.77;3.00;;;;;;;22.73;53.04;97737.84;8415443;28;20269;-65
2021/07/28 19:18:11;;;;;;;6.20;2.97;;;;;;;22.73;53.38;97744.91;8415679;28;20202;-66